Lehigh, Kansas
Current Conditions -  °F | °C
As of 2:55 PM on Sunday 23 Nov 2014 (Local Time) from KEWK Reporting Station
Overcast Overcast  
Wind Chill: 34°   Ceiling: 2300
Heat Index: 45°   Visibility: 10mi
Dew Point: 36°   Wind: 32mph
Humidity: 71%   Direction: 350°N
Pressure: 29.45"   Gusts: 46mph
Location:  38.37°N, 97.3°W
Report Text: KEWK 232055Z AUTO 35028G40KT 10SM FEW015 OVC023 07/02 A2945 RMK AO1 52007
Loading
Personal Weather Stations






























Interactive Weather Map New forecast layout! Learn more

10-Day Weather Forecast

Advertisements
Track Severe Weather on mobile